Latest Weather Observations for Bridgetown

IDW60801

Issued at 2:03 pm WST Sunday 4 December 2016 (issued every 30 minutes, with the page automatically refreshed every 10 minutes)

About weather observations | Map of weather stations | Latest weather observations for WA | Other Formats
Station Details ID: 009617 Name: BRIDGETOWN Lat: -33.95 Lon: 116.13 Height: 178.66 m
Data from the previous 72 hours. | See also: Recent months at Bridgetown
Date/Time
WST
Temp
°C
App
Temp
°C
Dew
Point
°C
Rel
Hum
%
Delta-T
°C
Wind Press
QNH
hPa
Press
MSL
hPa
Rain since
9am
mm
Dir  Spd
km/h
Gust
km/h
Spd
kts
Gust
kts
04/02:00pm 22.0 20.2 7.0 38 7.8 W 6 13 3 7 1013.5 1013.0 0.0
04/01:30pm 20.6 18.4 6.2 39 7.3 NNW 7 17 4 9 1013.8 1013.3 0.0
04/01:00pm 19.6 17.3 5.6 40 6.9 WSW 7 13 4 7 1014.2 1013.7 0.0
04/12:30pm 19.0 16.6 7.1 46 6.1 SSW 9 17 5 9 1014.6 1014.1 0.0
04/12:00pm 19.2 17.0 6.3 43 6.5 SE 7 11 4 6 1014.8 1014.2 0.0
04/11:30am 18.3 15.9 7.1 48 5.7 WSW 9 17 5 9 1015.3 1014.8 0.0
04/11:00am 17.0 14.7 7.6 54 4.8 SSW 9 17 5 9 1015.5 1015.0 0.0
04/10:30am 17.1 14.5 6.3 49 5.3 S 9 17 5 9 1015.5 1015.0 0.0
04/10:00am 17.1 15.2 6.9 51 5.1 W 6 11 3 6 1015.4 1014.9 0.0
04/09:30am 16.5 15.6 7.7 56 4.5 WSW 2 7 1 4 1015.4 1014.9 0.0
04/09:00am 16.5 14.3 8.0 57 4.3 S 9 13 5 7 1015.2 1014.7 2.4
04/08:30am 15.5 14.4 8.5 63 3.6 NNW 4 6 2 3 1015.0 1014.4 2.4
04/08:00am 14.4 12.9 8.6 68 3.0 SSE 6 13 3 7 1014.8 1014.2 2.4
04/07:30am 15.2 14.4 9.6 69 2.9 SSE 4 9 2 5 1014.4 1013.9 2.4
04/07:00am 13.3 13.2 9.5 78 2.0 CALM 0 0 0 0 1014.3 1013.8 2.4
04/06:30am 11.3 11.2 9.6 89 0.9 CALM 0 0 0 0 1014.0 1013.5 2.4
04/06:00am 10.1 9.9 8.9 92 0.6 CALM 0 0 0 0 1013.9 1013.4 2.4
04/05:30am 9.4 9.0 8.3 93 0.5 CALM 0 0 0 0 1013.4 1012.9 2.4
04/05:00am 8.9 8.4 7.8 93 0.5 CALM 0 0 0 0 1013.1 1012.6 2.4
04/04:30am 8.9 8.4 8.0 94 0.4 CALM 0 0 0 0 1012.7 1012.2 2.4
04/04:00am 8.4 7.8 7.3 93 0.5 CALM 0 0 0 0 1012.6 1012.1 2.4
04/03:30am 7.9 7.1 6.7 92 0.6 CALM 0 0 0 0 1012.2 1011.7 2.4
04/03:00am 8.1 7.3 6.7 91 0.7 CALM 0 0 0 0 1012.0 1011.5 2.4
04/02:30am 8.3 7.5 6.6 89 0.8 CALM 0 0 0 0 1011.6 1011.1 2.4
04/02:00am 9.2 8.1 6.8 85 1.1 W 2 4 1 2 1011.6 1011.1 2.4
04/01:30am 9.2 8.6 7.6 90 0.8 CALM 0 2 0 1 1011.6 1011.1 2.4
04/01:00am 9.9 9.5 8.2 89 0.8 CALM 0 0 0 0 1011.6 1011.1 2.4
04/12:30am 10.5 10.0 7.9 84 1.3 CALM 0 0 0 0 1011.6 1011.1 2.4
04/12:00am 11.4 11.1 8.6 83 1.4 CALM 0 0 0 0 1011.6 1011.1 2.4
 
Date/Time
WST
Temp
°C
App
Temp
°C
Dew
Point
°C
Rel
Hum
%
Delta-T
°C
Wind Press
QNH
hPa
Press
MSL
hPa
Rain since
9am
mm
Dir  Spd
km/h
Gust
km/h
Spd
kts
Gust
kts
03/11:30pm 12.7 12.2 9.2 79 1.8 SSW 2 6 1 3 1011.5 1011.0 2.4
03/11:00pm 13.4 13.5 10.0 80 1.8 CALM 0 2 0 1 1011.4 1010.9 2.4
03/10:30pm 13.6 13.1 10.6 82 1.6 SSW 4 9 2 5 1011.3 1010.8 2.4
03/10:00pm 13.5 13.9 11.2 86 1.2 CALM 0 0 0 0 1011.0 1010.5 2.4
03/09:30pm 13.7 13.6 10.9 83 1.5 SW 2 7 1 4 1010.8 1010.3 2.4
03/09:00pm 14.5 13.8 11.3 81 1.7 SSW 6 13 3 7 1010.5 1010.0 2.4
03/08:30pm 14.6 14.3 11.4 81 1.7 WSW 4 11 2 6 1010.1 1009.5 2.4
03/08:00pm 15.3 14.7 11.7 79 2.0 SW 6 9 3 5 1009.7 1009.1 2.4
03/07:30pm 15.9 15.5 12.3 79 2.0 SW 6 20 3 11 1009.4 1008.8 2.4
03/07:00pm 16.0 16.4 12.4 79 2.0 WSW 2 6 1 3 1009.0 1008.4 2.4
03/06:30pm 16.7 16.2 12.7 77 2.2 WSW 7 17 4 9 1008.6 1008.1 2.4
03/06:00pm 16.9 16.5 13.0 78 2.2 SW 7 17 4 9 1008.2 1007.7 2.4
03/05:30pm 16.8 16.7 13.9 83 1.7 WSW 7 20 4 11 1007.7 1007.2 2.4
03/05:00pm 17.0 17.3 14.6 86 1.4 W 6 17 3 9 1007.3 1006.8 2.4
03/04:30pm 16.4 15.9 14.8 90 0.9 W 11 20 6 11 1007.2 1006.7 2.4
03/04:00pm 18.9 17.8 14.2 74 2.7 WNW 13 20 7 11 1006.4 1005.9 0.0
03/03:30pm 19.2 18.8 15.1 77 2.4 W 11 30 6 16 1006.4 1005.9 0.0
03/03:00pm 18.2 17.9 15.5 84 1.6 WNW 11 24 6 13 1006.5 1006.0 0.0
03/02:30pm 20.3 19.1 14.0 67 3.7 NW 13 26 7 14 1006.0 1005.5 0.0
03/02:00pm 20.9 18.4 13.4 62 4.3 NW 19 28 10 15 1006.2 1005.7 0.0
03/01:30pm 21.0 19.4 13.9 64 4.1 NW 15 32 8 17 1006.2 1005.7 0.0
03/01:00pm 21.2 19.3 13.1 60 4.7 NW 15 26 8 14 1006.4 1005.9 0.0
03/12:30pm 19.4 18.0 12.2 63 4.0 NW 11 20 6 11 1006.8 1006.3 0.0
03/12:00pm 19.7 17.1 12.0 61 4.3 NNW 17 24 9 13 1007.0 1006.5 0.0
03/11:30am 19.8 17.1 11.8 60 4.5 NW 17 26 9 14 1007.2 1006.7 0.0
03/11:00am 18.6 17.0 11.4 63 4.0 WNW 11 22 6 12 1007.4 1006.9 0.0
03/10:30am 18.9 17.1 11.0 60 4.3 WNW 11 19 6 10 1007.5 1007.0 0.0
03/10:00am 19.1 17.0 11.2 60 4.4 WNW 13 28 7 15 1007.5 1007.0 0.0
03/09:30am 17.9 15.5 10.0 60 4.2 NW 13 24 7 13 1007.7 1007.2 0.0
03/09:00am 17.0 14.9 9.7 62 3.9 NW 11 19 6 10 1007.6 1007.1 0.0
03/08:30am 17.0 15.4 10.1 64 3.7 NW 9 17 5 9 1007.9 1007.4 0.0
03/08:00am 14.9 14.1 9.5 70 2.8 W 4 13 2 7 1007.7 1007.2 0.0
03/07:30am 13.8 12.7 10.0 78 2.0 N 6 7 3 4 1007.7 1007.2 0.0
03/07:00am 11.8 12.0 10.7 93 0.6 CALM 0 0 0 0 1007.8 1007.3 0.0
03/06:30am 9.8 9.6 9.0 95 0.4 CALM 0 0 0 0 1007.6 1007.1 0.0
03/06:00am 9.0 8.3 8.4 96 0.3 NW 2 6 1 3 1007.4 1006.9 0.0
03/05:30am 8.3 7.0 7.7 96 0.3 NW 4 6 2 3 1007.6 1007.1 0.0
03/05:00am 7.4 6.6 6.7 95 0.3 CALM 0 0 0 0 1007.4 1006.9 0.0
03/04:30am 8.1 7.5 7.3 95 0.4 CALM 0 0 0 0 1007.2 1006.7 0.0
03/04:00am 7.7 7.0 6.8 94 0.4 CALM 0 0 0 0 1007.1 1006.6 0.0
03/03:30am 8.2 7.6 7.3 94 0.4 CALM 0 0 0 0 1007.1 1006.6 0.0
03/03:00am 8.4 7.8 7.3 93 0.5 CALM 0 0 0 0 1007.2 1006.7 0.0
03/02:30am 8.9 8.0 7.8 93 0.5 NW 2 4 1 2 1007.3 1006.8 0.0
03/02:00am 8.7 8.1 7.6 93 0.5 CALM 0 0 0 0 1007.6 1007.1 0.0
03/01:30am 9.0 8.1 7.8 92 0.6 NW 2 6 1 3 1007.9 1007.4 0.0
03/01:00am 9.1 8.6 7.7 91 0.7 CALM 0 0 0 0 1008.2 1007.7 0.0
03/12:30am 9.7 9.2 8.0 89 0.8 CALM 0 0 0 0 1008.4 1007.9 0.0
03/12:00am 10.5 10.2 8.6 88 0.9 CALM 0 0 0 0 1008.5 1008.0 0.0
 
Date/Time
WST
Temp
°C
App
Temp
°C
Dew
Point
°C
Rel
Hum
%
Delta-T
°C
Wind Press
QNH
hPa
Press
MSL
hPa
Rain since
9am
mm
Dir  Spd
km/h
Gust
km/h
Spd
kts
Gust
kts
02/11:30pm 11.2 10.9 8.8 85 1.2 CALM 0 0 0 0 1009.2 1008.6 0.0
02/11:00pm 12.1 11.9 8.9 81 1.6 CALM 0 0 0 0 1009.5 1008.9 0.0
02/10:30pm 12.9 12.6 8.8 76 2.1 CALM 0 4 0 2 1009.5 1008.9 0.0
02/10:00pm 13.8 12.3 9.3 74 2.3 SSW 7 9 4 5 1010.0 1009.4 0.0
02/09:30pm 14.3 12.8 9.3 72 2.6 S 7 9 4 5 1009.9 1009.3 0.0
02/09:00pm 14.7 13.2 9.3 70 2.8 S 7 9 4 5 1009.9 1009.3 0.0
02/08:30pm 15.4 13.9 9.3 67 3.2 SSE 7 13 4 7 1010.1 1009.5 0.0
02/08:00pm 16.0 14.6 9.4 65 3.5 S 7 11 4 6 1010.2 1009.7 0.0
02/07:30pm 16.8 14.9 9.2 61 4.0 S 9 13 5 7 1010.3 1009.8 0.0
02/07:00pm 18.0 16.6 9.6 58 4.5 S 7 13 4 7 1010.2 1009.7 0.0
02/06:30pm 19.3 17.2 9.8 54 5.1 SSW 11 15 6 8 1009.8 1009.2 0.0
02/06:00pm 20.6 18.1 9.8 50 5.9 S 13 20 7 11 1009.5 1008.9 0.0
02/05:30pm 22.2 19.8 10.0 46 6.7 S 13 24 7 13 1009.1 1008.5 0.0
02/05:00pm 23.9 21.6 10.6 43 7.4 SW 13 20 7 11 1008.5 1008.0 0.0
02/04:30pm 25.6 23.6 7.2 31 9.8 W 7 13 4 7 1008.7 1008.2 0.0
02/04:00pm 26.0 23.4 7.6 31 9.9 W 11 19 6 10 1009.0 1008.4 0.0
02/03:30pm 26.1 24.8 7.7 31 9.9 E 4 15 2 8 1009.2 1008.6 0.0
02/03:00pm 25.0 23.5 6.7 31 9.6 NE 4 9 2 5 1009.5 1008.9 0.0
02/02:30pm 24.7 21.9 6.9 32 9.4 NW 11 17 6 9 1010.0 1009.4 0.0
02/02:00pm 24.9 23.0 7.5 33 9.3 NNE 7 17 4 9 1010.3 1009.8 0.0
02/01:30pm 24.5 23.3 8.0 35 8.8 NW 4 11 2 6 1010.7 1010.2 0.0
02/01:00pm 24.4 22.7 8.4 36 8.6 NW 7 17 4 9 1011.3 1010.8 0.0
02/12:30pm 23.4 22.4 9.0 40 7.8 NNE 4 11 2 6 1011.5 1011.0 0.0
02/12:00pm 22.7 20.9 9.5 43 7.2 N 9 19 5 10 1012.2 1011.7 0.0
02/11:30am 21.8 20.2 8.7 43 7.0 NE 7 15 4 8 1012.5 1012.0 0.0
02/11:00am 21.1 19.1 8.7 45 6.6 SE 9 22 5 12 1012.9 1012.4 0.0
02/10:30am 20.2 18.2 8.8 48 6.0 E 9 17 5 9 1013.5 1013.0 0.0
02/10:00am 18.7 16.6 8.1 50 5.5 NE 9 17 5 9 1014.1 1013.6 0.0
02/09:30am 18.5 16.7 7.9 50 5.5 ENE 7 20 4 11 1014.6 1014.1 0.0
02/09:00am 16.4 13.8 7.6 56 4.4 NNE 11 19 6 10 1015.0 1014.4 0.0
02/08:30am 16.5 14.0 8.2 58 4.2 ENE 11 20 6 11 1015.5 1015.0 0.0
02/08:00am 15.3 12.3 7.8 61 3.8 ENE 13 22 7 12 1015.7 1015.2 0.0
02/07:30am 14.4 12.6 7.0 61 3.6 ENE 6 22 3 12 1016.0 1015.5 0.0
02/07:00am 13.1 11.7 7.1 67 2.9 SSE 4 6 2 3 1016.3 1015.8 0.0
02/06:30am 11.1 9.5 7.8 80 1.6 S 6 9 3 5 1016.4 1015.9 0.0
02/06:00am 7.5 6.7 6.6 94 0.4 CALM 0 0 0 0 1016.4 1015.9 0.0
02/05:30am 5.7 4.5 4.8 94 0.4 CALM 0 0 0 0 1016.2 1015.7 0.0
02/05:00am 5.7 4.5 4.8 94 0.4 CALM 0 0 0 0 1016.0 1015.5 0.0
02/04:30am 5.8 4.7 4.9 94 0.4 CALM 0 0 0 0 1015.9 1015.4 0.0
02/04:00am 5.8 4.7 4.9 94 0.4 CALM 0 0 0 0 1015.7 1015.2 0.0
02/03:30am 6.0 4.9 5.0 93 0.4 CALM 0 0 0 0 1015.5 1015.0 0.0
02/03:00am 6.3 5.2 5.1 92 0.5 CALM 0 0 0 0 1015.6 1015.1 0.0
02/02:30am 6.8 5.7 5.3 90 0.7 CALM 0 0 0 0 1015.7 1015.2 0.0
02/02:00am 7.6 6.6 5.7 88 0.9 CALM 0 0 0 0 1015.8 1015.3 0.0
02/01:30am 8.6 7.7 6.2 85 1.1 CALM 0 0 0 0 1015.9 1015.4 0.0
02/01:00am 9.3 8.5 6.7 84 1.2 CALM 0 0 0 0 1016.1 1015.6 0.0
02/12:30am 9.8 8.3 6.9 82 1.4 S 4 6 2 3 1016.3 1015.8 0.0
02/12:00am 10.2 8.7 6.9 80 1.6 S 4 7 2 4 1016.4 1015.9 0.0
 
Date/Time
WST
Temp
°C
App
Temp
°C
Dew
Point
°C
Rel
Hum
%
Delta-T
°C
Wind Press
QNH
hPa
Press
MSL
hPa
Rain since
9am
mm
Dir  Spd
km/h
Gust
km/h
Spd
kts
Gust
kts
01/11:30pm 10.6 9.2 7.1 79 1.7 S 4 7 2 4 1016.6 1016.1 0.0
01/11:00pm 10.9 9.4 7.0 77 1.9 SSE 4 7 2 4 1017.0 1016.5 0.0
01/10:30pm 11.3 9.2 6.8 74 2.2 S 7 13 4 7 1017.1 1016.6 0.0
01/10:00pm 11.8 9.8 6.9 72 2.4 S 7 15 4 8 1017.2 1016.7 0.0
01/09:30pm 12.1 10.1 7.0 71 2.5 S 7 13 4 7 1017.2 1016.7 0.0
01/09:00pm 12.5 10.1 7.0 69 2.7 S 9 17 5 9 1016.9 1016.4 0.0
01/08:30pm 13.2 10.4 7.0 66 3.0 SSE 11 24 6 13 1016.7 1016.2 0.0
01/08:00pm 13.8 11.0 6.9 63 3.4 S 11 20 6 11 1016.4 1015.9 0.0
01/07:30pm 14.6 11.4 6.9 60 3.8 S 13 22 7 12 1016.3 1015.8 0.0
01/07:00pm 15.6 12.4 6.9 56 4.3 S 13 22 7 12 1016.1 1015.6 0.0
01/06:30pm 16.6 13.4 6.7 52 4.9 S 13 24 7 13 1015.7 1015.2 0.0
01/06:00pm 17.9 14.2 6.4 47 5.7 S 15 24 8 13 1015.2 1014.7 0.0
01/05:30pm 18.8 14.9 6.9 46 6.0 SSE 17 26 9 14 1014.8 1014.2 0.0
01/05:00pm 19.9 16.4 7.0 43 6.6 SSW 15 24 8 13 1014.5 1014.0 0.0
01/04:30pm 19.0 15.0 6.8 45 6.2 SSE 17 28 9 15 1014.8 1014.2 0.0
01/04:00pm 21.6 18.7 6.3 37 7.8 S 11 19 6 10 1014.8 1014.2 0.0
01/03:30pm 22.0 19.1 6.7 37 7.9 S 11 20 6 11 1014.8 1014.2 0.0
01/03:00pm 21.7 18.5 6.8 38 7.7 SSE 13 22 7 12 1014.9 1014.3 0.0
01/02:30pm 21.5 19.2 7.3 40 7.4 SSE 9 17 5 9 1015.1 1014.6 0.0

Other Formats:

Comma delimited format used in spreadsheet applications
http://www.bom.gov.au/fwo/IDW60801/IDW60801.95632.axf

JavaScript Object Notation format (JSON) in row-major order
http://www.bom.gov.au/fwo/IDW60801/IDW60801.95632.json